Time;durP1;ratioP1;P1;durP2;ratioP2;P2;SDS_P1;SDS_P2;PMS_P1;PMS_P2;Temp;Humidity;BMP_temperature;BMP_pressure;BME280_temperature;BME280_humidity;BME280_pressure;Samples;Min_cycle;Max_cycle;Signal;HPM_P1;HPM_P2
2023/06/04 00:01:58;;;;;;;3.88;1.40;;;16.10;90.70;;;;;;6162176;23;20070;-93
2023/06/04 00:04:25;;;;;;;4.05;1.80;;;16.00;90.60;;;;;;6162324;23;20056;-93
2023/06/04 00:06:51;;;;;;;4.70;1.83;;;16.00;90.60;;;;;;6161482;23;20772;-93
2023/06/04 00:09:17;;;;;;;4.03;1.40;;;15.90;90.60;;;;;;6161010;23;20052;-93
2023/06/04 00:11:42;;;;;;;5.90;1.98;;;15.90;90.70;;;;;;6161599;23;20017;-93
2023/06/04 00:14:08;;;;;;;4.63;1.50;;;15.80;90.90;;;;;;6188213;23;20020;-93
2023/06/04 00:16:35;;;;;;;5.25;2.00;;;15.80;90.90;;;;;;6160624;23;20021;-93
2023/06/04 00:19:02;;;;;;;4.53;1.83;;;15.80;91.00;;;;;;6161052;23;20013;-92
2023/06/04 00:21:27;;;;;;;3.47;1.60;;;15.70;91.00;;;;;;6161721;23;20013;-93
2023/06/04 00:23:53;;;;;;;5.53;1.80;;;15.60;91.00;;;;;;6160337;23;20044;-92
2023/06/04 00:26:18;;;;;;;4.85;1.70;;;15.60;91.00;;;;;;6161118;23;20016;-92
2023/06/04 00:28:44;;;;;;;5.65;1.80;;;15.60;91.00;;;;;;6186879;23;20048;-92
2023/06/04 00:31:12;;;;;;;5.18;1.73;;;15.50;91.10;;;;;;6159525;23;20016;-93
2023/06/04 00:33:41;;;;;;;5.53;2.00;;;15.50;90.90;;;;;;6160617;23;20013;-92
2023/06/04 00:36:07;;;;;;;6.05;1.98;;;15.40;91.00;;;;;;6160375;23;20017;-92
2023/06/04 00:38:32;;;;;;;5.28;1.77;;;15.40;91.20;;;;;;6160637;23;20013;-92
2023/06/04 00:40:58;;;;;;;5.93;2.00;;;15.30;91.30;;;;;;6161410;23;20071;-93
2023/06/04 00:43:27;;;;;;;5.97;1.80;;;15.30;91.30;;;;;;6186769;23;20092;-92
2023/06/04 00:45:53;;;;;;;4.82;1.77;;;15.20;91.50;;;;;;6160734;23;20454;-92
2023/06/04 00:48:20;;;;;;;4.43;1.90;;;15.20;91.20;;;;;;6160868;23;20024;-92
2023/06/04 00:50:46;;;;;;;4.20;1.77;;;15.10;91.20;;;;;;6186421;23;20096;-92
2023/06/04 00:53:12;;;;;;;5.18;1.65;;;15.10;91.40;;;;;;6187106;23;20017;-92
2023/06/04 00:55:38;;;;;;;7.35;1.90;;;15.10;91.40;;;;;;6160448;23;20071;-92
2023/06/04 00:58:04;;;;;;;5.88;2.10;;;15.00;91.60;;;;;;6186714;23;20059;-90
2023/06/04 01:00:31;;;;;;;6.82;2.30;;;15.00;91.80;;;;;;6187028;23;20017;-92
2023/06/04 01:03:03;;;;;;;4.63;1.88;;;15.00;92.20;;;;;;6160510;23;20140;-92
2023/06/04 01:05:43;;;;;;;6.32;2.00;;;14.90;91.80;;;;;;6186455;23;20017;-92
2023/06/04 01:08:10;;;;;;;4.90;2.05;;;14.90;91.90;;;;;;6160433;23;20071;-93
2023/06/04 01:10:36;;;;;;;5.65;2.20;;;14.90;92.10;;;;;;6160110;23;20021;-92
2023/06/04 01:13:01;;;;;;;5.00;1.92;;;14.80;92.10;;;;;;6186360;23;20052;-92
2023/06/04 01:15:27;;;;;;;4.88;1.88;;;14.80;92.00;;;;;;6160216;23;20017;-92
2023/06/04 01:18:03;;;;;;;6.18;1.90;;;14.80;91.90;;;;;;6159951;23;20857;-92
2023/06/04 01:20:43;;;;;;;4.40;1.90;;;14.80;92.00;;;;;;6187026;23;20385;-92
2023/06/04 01:23:35;;;;;;;5.15;1.80;;;14.70;92.10;;;;;;6187070;23;20049;-91
2023/06/04 01:26:05;;;;;;;6.15;2.33;;;14.70;92.10;;;;;;6159928;23;20059;-92
2023/06/04 01:28:34;;;;;;;6.75;2.30;;;14.70;92.20;;;;;;6160774;23;20017;-92
2023/06/04 01:31:01;;;;;;;5.22;1.98;;;14.60;92.20;;;;;;6186744;23;20013;-92
2023/06/04 01:33:27;;;;;;;7.25;1.98;;;14.60;92.20;;;;;;6159768;23;20345;-92
2023/06/04 01:35:53;;;;;;;5.80;1.90;;;14.50;92.20;;;;;;6186272;23;20013;-91
2023/06/04 01:38:18;;;;;;;7.13;2.17;;;14.50;92.30;;;;;;6186736;23;20049;-92
2023/06/04 01:40:45;;;;;;;5.22;2.00;;;14.50;92.40;;;;;;6159188;23;20032;-92
2023/06/04 01:43:10;;;;;;;5.75;2.17;;;14.40;92.40;;;;;;6161555;23;20024;-92
2023/06/04 01:45:36;;;;;;;6.32;2.10;;;14.40;92.50;;;;;;6188495;23;20013;-91
2023/06/04 01:48:03;;;;;;;5.68;2.17;;;14.30;92.50;;;;;;6188450;23;20095;-92
2023/06/04 01:50:30;;;;;;;4.53;2.00;;;14.30;92.60;;;;;;6188511;23;20100;-92
2023/06/04 01:52:56;;;;;;;7.55;2.28;;;14.30;92.50;;;;;;6188653;23;20017;-91
2023/06/04 01:55:22;;;;;;;5.45;2.22;;;14.20;92.60;;;;;;6161742;23;20019;-91
2023/06/04 01:57:48;;;;;;;5.75;2.30;;;14.20;92.60;;;;;;6188551;23;20017;-91
2023/06/04 02:00:14;;;;;;;6.60;2.42;;;14.20;92.60;;;;;;6161337;23;20023;-91
2023/06/04 02:02:42;;;;;;;4.82;2.10;;;14.20;92.60;;;;;;6188692;23;20088;-91
2023/06/04 02:05:08;;;;;;;4.78;2.17;;;14.20;92.70;;;;;;6189163;23;20052;-92
2023/06/04 02:07:38;;;;;;;5.80;2.20;;;14.10;92.70;;;;;;6161686;23;20017;-91
2023/06/04 02:10:07;;;;;;;6.72;2.30;;;14.00;92.50;;;;;;6162082;23;20508;-92
2023/06/04 02:12:32;;;;;;;5.43;2.05;;;14.00;92.20;;;;;;6161663;23;20017;-91
2023/06/04 02:14:58;;;;;;;7.65;2.42;;;13.90;92.00;;;;;;6160974;23;20036;-92
2023/06/04 02:17:25;;;;;;;6.15;2.38;;;13.90;92.10;;;;;;6162289;23;20044;-92
2023/06/04 02:19:50;;;;;;;5.30;2.20;;;13.90;92.10;;;;;;6162182;23;20064;-92
2023/06/04 02:22:20;;;;;;;6.13;2.15;;;13.80;92.10;;;;;;6162334;23;20021;-92
2023/06/04 02:24:48;;;;;;;6.15;2.30;;;13.80;92.20;;;;;;6188440;23;20067;-91
2023/06/04 02:27:14;;;;;;;6.28;2.63;;;13.70;92.30;;;;;;6162098;23;20052;-92
2023/06/04 02:29:41;;;;;;;6.05;2.38;;;13.70;92.40;;;;;;6188010;23;20017;-92
2023/06/04 02:32:07;;;;;;;6.72;2.50;;;13.70;92.50;;;;;;6188797;23;20023;-92
2023/06/04 02:34:36;;;;;;;5.28;2.40;;;13.60;92.50;;;;;;6188708;23;20017;-92
2023/06/04 02:37:02;;;;;;;6.85;2.75;;;13.60;92.60;;;;;;6188407;23;20015;-92
2023/06/04 02:39:28;;;;;;;8.45;2.50;;;13.60;92.40;;;;;;6188674;23;20017;-91
2023/06/04 02:41:54;;;;;;;7.28;2.67;;;13.50;92.40;;;;;;6162355;23;20082;-92
2023/06/04 02:44:20;;;;;;;7.75;2.55;;;13.50;92.60;;;;;;6161554;23;20013;-91
2023/06/04 02:46:45;;;;;;;6.28;2.55;;;13.50;92.80;;;;;;6188175;23;20327;-91
2023/06/04 02:49:13;;;;;;;7.55;2.72;;;13.50;92.90;;;;;;6188873;23;20330;-91
2023/06/04 02:51:43;;;;;;;5.97;2.50;;;13.40;93.30;;;;;;6188495;23;20028;-92
2023/06/04 02:54:09;;;;;;;5.63;2.63;;;13.40;93.00;;;;;;6161930;23;20512;-92
2023/06/04 02:56:36;;;;;;;6.50;2.40;;;13.40;93.00;;;;;;6161455;23;20060;-92
2023/06/04 02:59:05;;;;;;;7.22;2.55;;;13.30;93.10;;;;;;6161861;23;20055;-91
2023/06/04 03:01:31;;;;;;;6.28;2.50;;;13.20;93.10;;;;;;6162034;23;20468;-92
2023/06/04 03:03:57;;;;;;;7.05;2.45;;;13.30;93.10;;;;;;6161813;23;20096;-91
2023/06/04 03:06:23;;;;;;;6.95;2.40;;;13.20;93.00;;;;;;6161878;23;20449;-92
2023/06/04 03:08:52;;;;;;;7.30;2.33;;;13.20;93.00;;;;;;6188141;23;20013;-91
2023/06/04 03:11:20;;;;;;;7.20;2.45;;;13.10;93.10;;;;;;6161315;23;20521;-92
2023/06/04 03:13:46;;;;;;;6.95;2.42;;;13.10;93.20;;;;;;6188231;23;20017;-91
2023/06/04 03:16:12;;;;;;;8.63;2.30;;;13.10;93.20;;;;;;6161811;23;20052;-92
2023/06/04 03:18:39;;;;;;;6.95;2.67;;;13.10;93.20;;;;;;6161485;23;20096;-90
2023/06/04 03:21:05;;;;;;;6.13;2.38;;;13.00;93.20;;;;;;6162379;23;20013;-91
2023/06/04 03:23:32;;;;;;;4.53;2.13;;;13.00;93.20;;;;;;6188673;23;20092;-91
2023/06/04 03:25:58;;;;;;;6.88;2.55;;;13.00;93.10;;;;;;6187500;23;20489;-91
2023/06/04 03:28:23;;;;;;;6.53;2.83;;;13.00;93.20;;;;;;6161779;23;20021;-91
2023/06/04 03:30:49;;;;;;;6.60;2.53;;;12.90;93.00;;;;;;6161266;23;20024;-90
2023/06/04 03:33:15;;;;;;;8.95;2.45;;;12.90;93.10;;;;;;6161018;23;20573;-90
2023/06/04 03:35:41;;;;;;;6.30;2.38;;;12.90;93.20;;;;;;6161060;23;20099;-90
2023/06/04 03:38:07;;;;;;;6.88;2.60;;;12.80;93.10;;;;;;6161619;23;20051;-90
2023/06/04 03:40:32;;;;;;;7.53;2.75;;;12.80;93.30;;;;;;6161142;23;20075;-90
2023/06/04 03:42:58;;;;;;;6.43;2.40;;;12.80;93.10;;;;;;6161526;23;20072;-90
2023/06/04 03:45:24;;;;;;;8.32;2.58;;;12.70;93.10;;;;;;6161465;23;20025;-91
2023/06/04 03:47:49;;;;;;;7.93;2.30;;;12.70;93.20;;;;;;6160487;23;20064;-90
2023/06/04 03:50:15;;;;;;;7.88;2.75;;;12.70;93.30;;;;;;6188013;23;20373;-91
2023/06/04 03:52:41;;;;;;;9.40;2.63;;;12.70;93.30;;;;;;6187309;23;20055;-90
2023/06/04 03:55:07;;;;;;;6.40;2.40;;;12.60;93.40;;;;;;6161307;23;20029;-90
2023/06/04 03:57:32;;;;;;;7.53;2.88;;;12.60;93.40;;;;;;6160787;23;20338;-91
2023/06/04 03:59:58;;;;;;;7.07;2.53;;;12.60;93.50;;;;;;6187380;23;20017;-91
2023/06/04 04:02:23;;;;;;;6.65;2.40;;;12.60;93.30;;;;;;6161527;23;20025;-92
2023/06/04 04:04:49;;;;;;;7.60;2.97;;;12.60;93.20;;;;;;6161179;23;20442;-90
2023/06/04 04:07:15;;;;;;;5.95;2.38;;;12.60;93.20;;;;;;6187608;23;20060;-90
2023/06/04 04:09:41;;;;;;;7.40;2.53;;;12.50;93.40;;;;;;6189007;23;20013;-90
2023/06/04 04:12:07;;;;;;;6.25;2.70;;;12.50;93.50;;;;;;6164295;23;20009;-90
2023/06/04 04:14:32;;;;;;;5.97;2.42;;;12.50;93.50;;;;;;6161987;23;20021;-91
2023/06/04 04:16:58;;;;;;;6.38;2.38;;;12.50;93.30;;;;;;6188753;23;20024;-91
2023/06/04 04:19:24;;;;;;;6.20;2.60;;;12.50;93.00;;;;;;6163239;23;20394;-90
2023/06/04 04:21:50;;;;;;;5.38;2.47;;;12.40;92.80;;;;;;6165022;23;20021;-91
2023/06/04 04:24:28;;;;;;;7.88;2.63;;;12.50;92.80;;;;;;6167262;23;20016;-90
2023/06/04 04:26:54;;;;;;;7.90;3.00;;;12.40;93.00;;;;;;6165433;23;20073;-91
2023/06/04 04:29:24;;;;;;;6.28;2.67;;;12.30;93.00;;;;;;6163459;23;20009;-90
2023/06/04 04:31:56;;;;;;;7.13;2.40;;;12.30;92.90;;;;;;6188035;23;20017;-89
2023/06/04 04:34:22;;;;;;;6.45;2.47;;;12.30;92.90;;;;;;6191115;23;20099;-90
2023/06/04 04:36:56;;;;;;;6.38;2.67;;;12.30;93.00;;;;;;6190031;23;20422;-91
2023/06/04 04:39:25;;;;;;;6.18;2.53;;;12.30;93.00;;;;;;6165056;23;20039;-91
2023/06/04 04:41:51;;;;;;;7.15;2.88;;;12.30;93.00;;;;;;6164431;23;20024;-90
2023/06/04 04:44:17;;;;;;;6.88;2.65;;;12.20;93.00;;;;;;6162143;23;20017;-91
2023/06/04 04:46:42;;;;;;;7.53;2.75;;;12.20;92.90;;;;;;6161800;23;20013;-91
2023/06/04 04:49:08;;;;;;;6.28;2.63;;;12.20;92.90;;;;;;6160068;23;20017;-91
2023/06/04 04:51:35;;;;;;;9.52;2.88;;;12.20;93.10;;;;;;6186747;23;20393;-91
2023/06/04 04:54:01;;;;;;;6.43;2.63;;;12.20;93.20;;;;;;6186110;23;20442;-91
2023/06/04 04:56:27;;;;;;;7.70;3.00;;;12.20;93.20;;;;;;6186540;23;20017;-92
2023/06/04 04:58:54;;;;;;;7.50;2.92;;;12.20;93.30;;;;;;6159974;23;20020;-91
2023/06/04 05:01:20;;;;;;;7.47;2.70;;;12.20;93.70;;;;;;6160593;23;20013;-91
2023/06/04 05:03:45;;;;;;;10.52;3.75;;;12.20;93.20;;;;;;6160798;23;20072;-90
2023/06/04 05:06:11;;;;;;;8.70;3.17;;;12.20;93.60;;;;;;6187255;23;20056;-91
2023/06/04 05:08:37;;;;;;;8.77;3.13;;;12.30;93.70;;;;;;6160417;23;20021;-91
2023/06/04 05:11:03;;;;;;;6.68;2.90;;;12.20;93.70;;;;;;6186331;23;20017;-91
2023/06/04 05:13:28;;;;;;;8.23;2.55;;;12.20;93.60;;;;;;6160615;23;20096;-92
2023/06/04 05:15:54;;;;;;;9.20;3.65;;;12.20;93.60;;;;;;6187555;23;20028;-91
2023/06/04 05:18:20;;;;;;;7.30;2.70;;;12.20;93.80;;;;;;6186513;23;20019;-91
2023/06/04 05:20:46;;;;;;;7.90;2.92;;;12.30;93.70;;;;;;6186373;23;20045;-91
2023/06/04 05:23:12;;;;;;;8.13;3.17;;;12.30;93.90;;;;;;6160099;23;20013;-91
2023/06/04 05:25:38;;;;;;;7.88;2.83;;;12.30;93.80;;;;;;6159959;23;20104;-92
2023/06/04 05:28:06;;;;;;;7.55;3.30;;;12.30;93.90;;;;;;6161862;23;20060;-92
2023/06/04 05:30:33;;;;;;;7.63;2.90;;;12.30;94.00;;;;;;6158790;23;20449;-87
2023/06/04 05:32:59;;;;;;;8.32;2.90;;;12.40;93.90;;;;;;6185327;23;20017;-87
2023/06/04 05:35:25;;;;;;;6.70;2.90;;;12.40;93.90;;;;;;6159427;23;20100;-88
2023/06/04 05:37:53;;;;;;;6.15;2.45;;;12.40;94.50;;;;;;6186229;23;20051;-87
2023/06/04 05:40:21;;;;;;;6.53;2.80;;;12.40;93.90;;;;;;6159389;23;20044;-89
2023/06/04 05:42:47;;;;;;;10.48;3.45;;;12.40;93.90;;;;;;6185898;23;20016;-88
2023/06/04 05:45:12;;;;;;;8.38;2.83;;;12.50;94.40;;;;;;6159645;23;20095;-87
2023/06/04 05:47:38;;;;;;;8.55;2.53;;;12.50;94.10;;;;;;6185587;23;20021;-89
2023/06/04 05:50:13;;;;;;;5.00;2.33;;;12.60;94.00;;;;;;6185833;23;20036;-89
2023/06/04 05:52:38;;;;;;;6.88;2.55;;;12.60;94.10;;;;;;6158368;23;20128;-89
2023/06/04 05:55:07;;;;;;;5.43;2.33;;;12.60;93.90;;;;;;6186400;23;20017;-89
2023/06/04 05:57:33;;;;;;;6.85;2.40;;;12.60;93.80;;;;;;6160528;23;20025;-89
2023/06/04 05:59:58;;;;;;;8.43;2.55;;;12.60;93.70;;;;;;6159005;23;20013;-88
2023/06/04 06:02:24;;;;;;;7.63;2.63;;;12.60;94.00;;;;;;6185376;23;20024;-89
2023/06/04 06:04:50;;;;;;;7.97;2.95;;;12.70;94.10;;;;;;6159850;23;20053;-90
2023/06/04 06:07:15;;;;;;;7.57;2.53;;;12.70;94.20;;;;;;6160690;23;20009;-90
2023/06/04 06:09:41;;;;;;;10.63;2.88;;;12.80;94.20;;;;;;6159463;23;20075;-91
2023/06/04 06:12:07;;;;;;;8.68;2.95;;;12.80;94.30;;;;;;6186658;23;20047;-90
2023/06/04 06:14:32;;;;;;;6.22;2.45;;;12.80;94.40;;;;;;6185335;23;20384;-90
2023/06/04 06:16:58;;;;;;;6.78;2.45;;;12.90;94.40;;;;;;6185987;23;20017;-90
2023/06/04 06:19:23;;;;;;;7.30;2.83;;;12.90;94.10;;;;;;6186597;23;20508;-91
2023/06/04 06:21:49;;;;;;;8.52;2.80;;;12.90;94.20;;;;;;6185936;23;20017;-90
2023/06/04 06:24:15;;;;;;;7.00;2.67;;;13.00;94.60;;;;;;6186582;23;20021;-89
2023/06/04 06:26:40;;;;;;;7.22;2.50;;;13.00;94.40;;;;;;6185193;23;20009;-91
2023/06/04 06:29:06;;;;;;;8.00;2.58;;;13.10;94.40;;;;;;6185757;23;20017;-88
2023/06/04 06:31:31;;;;;;;9.70;3.03;;;13.10;94.30;;;;;;6187705;23;20338;-90
2023/06/04 06:33:57;;;;;;;6.25;2.45;;;13.20;94.40;;;;;;6188008;23;20024;-91
2023/06/04 06:36:23;;;;;;;14.65;3.90;;;13.30;94.30;;;;;;6161078;23;20017;-91
2023/06/04 06:38:48;;;;;;;8.45;2.70;;;13.40;94.70;;;;;;6161867;23;20013;-90
2023/06/04 06:41:14;;;;;;;6.93;2.50;;;13.40;94.50;;;;;;6188413;23;20021;-91
2023/06/04 06:43:40;;;;;;;5.57;2.17;;;13.50;94.50;;;;;;6161414;23;20025;-91
2023/06/04 06:46:05;;;;;;;8.48;2.65;;;13.60;94.40;;;;;;6161934;23;20020;-89
2023/06/04 06:48:31;;;;;;;7.57;2.60;;;13.60;94.50;;;;;;6161461;23;20021;-91
2023/06/04 06:50:56;;;;;;;8.65;2.80;;;13.80;94.30;;;;;;6188245;23;20067;-90
2023/06/04 06:53:22;;;;;;;9.25;2.90;;;13.80;94.30;;;;;;6161881;23;20009;-90
2023/06/04 06:55:48;;;;;;;9.73;2.65;;;13.90;94.30;;;;;;6160583;23;20103;-90
2023/06/04 06:58:13;;;;;;;8.40;2.25;;;14.00;94.30;;;;;;6161805;23;20041;-91
2023/06/04 07:00:39;;;;;;;10.27;2.80;;;14.10;94.20;;;;;;6187735;23;20027;-90
2023/06/04 07:03:05;;;;;;;10.05;2.63;;;14.20;94.30;;;;;;6162320;23;20020;-91
2023/06/04 07:05:30;;;;;;;7.65;2.35;;;14.20;94.20;;;;;;6161332;23;20016;-91
2023/06/04 07:07:58;;;;;;;8.60;2.55;;;14.30;94.10;;;;;;6160930;23;20013;-90
2023/06/04 07:10:24;;;;;;;8.40;2.80;;;14.40;94.00;;;;;;6186160;23;20442;-90
2023/06/04 07:12:50;;;;;;;10.32;2.53;;;14.50;94.00;;;;;;6160514;23;20049;-91
2023/06/04 07:15:15;;;;;;;6.63;1.70;;;14.60;93.80;;;;;;6161217;23;20020;-91
2023/06/04 07:17:41;;;;;;;6.65;2.13;;;14.70;93.70;;;;;;6187519;23;20071;-89
2023/06/04 07:20:09;;;;;;;6.15;2.03;;;14.80;93.80;;;;;;6162092;23;20020;-90
2023/06/04 07:22:35;;;;;;;11.98;2.15;;;14.90;93.70;;;;;;6159854;23;20075;-88
2023/06/04 07:25:01;;;;;;;9.43;2.60;;;14.90;93.70;;;;;;6186229;23;20009;-90
2023/06/04 07:27:27;;;;;;;7.30;1.83;;;15.00;93.70;;;;;;6160607;23;20052;-88
2023/06/04 07:29:52;;;;;;;7.15;2.10;;;15.10;93.60;;;;;;6186059;23;20017;-86
2023/06/04 07:32:18;;;;;;;6.70;2.13;;;15.20;93.50;;;;;;6185965;23;20013;-88
2023/06/04 07:34:44;;;;;;;7.47;2.20;;;15.40;93.40;;;;;;6186098;23;20381;-88
2023/06/04 07:37:10;;;;;;;9.07;2.20;;;15.40;93.30;;;;;;6186288;23;20013;-88
2023/06/04 07:39:36;;;;;;;7.38;1.85;;;15.60;93.30;;;;;;6158042;23;20083;-87
2023/06/04 07:42:02;;;;;;;9.43;2.03;;;15.60;93.10;;;;;;6186342;23;20385;-88
2023/06/04 07:44:27;;;;;;;8.35;2.03;;;15.70;93.20;;;;;;6159728;23;20017;-87
2023/06/04 07:46:53;;;;;;;9.27;2.05;;;15.80;93.10;;;;;;6185454;23;20163;-86
2023/06/04 07:49:20;;;;;;;8.27;2.22;;;15.90;92.70;;;;;;6186403;23;20446;-90
2023/06/04 07:51:46;;;;;;;10.93;2.92;;;16.00;92.30;;;;;;6159164;23;20401;-89
2023/06/04 07:54:13;;;;;;;4.80;1.58;;;16.20;91.60;;;;;;6160866;23;20068;-90
2023/06/04 07:56:38;;;;;;;8.35;2.25;;;16.20;91.90;;;;;;6186594;23;20044;-89
2023/06/04 07:59:04;;;;;;;7.57;2.08;;;16.30;92.00;;;;;;6159636;23;20082;-89
2023/06/04 08:01:29;;;;;;;7.90;2.35;;;16.40;92.10;;;;;;6160663;23;20013;-89
2023/06/04 08:03:56;;;;;;;6.05;2.03;;;16.50;92.10;;;;;;6186307;23;20021;-89
2023/06/04 08:06:24;;;;;;;6.90;1.80;;;16.60;92.20;;;;;;6159511;23;20013;-90
2023/06/04 08:08:50;;;;;;;8.85;2.13;;;16.70;92.00;;;;;;6160051;23;20021;-89
2023/06/04 08:11:15;;;;;;;6.65;2.00;;;16.70;92.00;;;;;;6160438;23;20508;-90
2023/06/04 08:13:41;;;;;;;3.88;1.58;;;16.90;92.10;;;;;;6185641;23;20021;-90
2023/06/04 08:16:09;;;;;;;8.70;2.10;;;16.90;92.10;;;;;;6186957;23;20019;-89
2023/06/04 08:18:38;;;;;;;8.27;2.00;;;17.10;91.80;;;;;;6159595;23;20446;-89
2023/06/04 08:21:04;;;;;;;6.10;1.80;;;17.10;91.80;;;;;;6158689;23;20013;-89
2023/06/04 08:23:29;;;;;;;6.68;1.80;;;17.20;91.80;;;;;;6186969;23;20017;-89
2023/06/04 08:25:55;;;;;;;6.05;1.88;;;17.30;91.70;;;;;;6159693;23;20350;-90
2023/06/04 08:28:21;;;;;;;6.30;1.83;;;17.40;91.60;;;;;;6186053;23;20040;-90
2023/06/04 08:30:46;;;;;;;8.93;2.10;;;17.50;91.10;;;;;;6186302;23;20017;-90
2023/06/04 08:33:12;;;;;;;8.77;2.08;;;17.60;91.00;;;;;;6186803;23;20366;-89
2023/06/04 08:35:37;;;;;;;6.40;1.80;;;17.70;90.20;;;;;;6159245;23;20100;-90
2023/06/04 08:38:03;;;;;;;6.10;2.08;;;17.70;90.40;;;;;;6186808;23;20020;-91
2023/06/04 08:40:29;;;;;;;6.65;1.88;;;17.80;90.40;;;;;;6186984;23;20032;-91
2023/06/04 08:42:59;;;;;;;5.10;1.50;;;17.90;89.20;;;;;;6159840;23;20013;-91
2023/06/04 08:45:25;;;;;;;6.10;1.70;;;17.90;90.10;;;;;;6187201;23;20021;-91
2023/06/04 08:47:51;;;;;;;6.55;1.60;;;18.00;90.70;;;;;;6186422;23;20020;-90
2023/06/04 08:50:19;;;;;;;8.15;1.60;;;18.10;90.50;;;;;;6158396;23;20016;-89
2023/06/04 08:52:45;;;;;;;5.22;1.60;;;18.20;90.20;;;;;;6158392;23;20123;-90
2023/06/04 08:55:13;;;;;;;3.97;1.50;;;18.30;89.50;;;;;;6185164;23;20473;-90
2023/06/04 08:57:40;;;;;;;4.57;1.42;;;18.30;88.30;;;;;;6186016;23;20013;-90
2023/06/04 09:00:07;;;;;;;7.05;1.88;;;18.40;87.80;;;;;;6159206;23;20341;-89
2023/06/04 09:02:36;;;;;;;5.10;1.60;;;18.50;87.00;;;;;;6187879;23;20017;-89
2023/06/04 09:05:04;;;;;;;9.45;1.70;;;18.50;82.30;;;;;;6187899;23;20307;-87
2023/06/04 09:07:31;;;;;;;8.93;1.65;;;18.60;84.40;;;;;;6158989;23;20040;-89
2023/06/04 09:09:58;;;;;;;8.32;1.63;;;18.70;87.50;;;;;;6184692;23;20017;-89
2023/06/04 09:12:25;;;;;;;6.40;1.42;;;18.70;87.90;;;;;;6185748;23;20015;-91
2023/06/04 09:14:51;;;;;;;6.32;1.70;;;18.90;83.10;;;;;;6158498;23;20103;-89
2023/06/04 09:17:24;;;;;;;5.60;1.70;;;18.90;83.10;;;;;;6184794;23;20016;-89
2023/06/04 09:19:51;;;;;;;5.03;1.45;;;19.00;85.30;;;;;;6185361;23;20017;-89
2023/06/04 09:22:16;;;;;;;6.32;1.67;;;19.00;82.50;;;;;;6185558;23;20390;-88
2023/06/04 09:24:52;;;;;;;6.72;1.75;;;19.10;85.70;;;;;;6158181;23;20083;-86
2023/06/04 09:27:22;;;;;;;6.03;1.70;;;19.20;85.40;;;;;;6185643;23;20072;-86
2023/06/04 09:29:51;;;;;;;11.13;1.70;;;19.40;83.60;;;;;;6157671;23;20079;-85
2023/06/04 09:32:24;;;;;;;6.88;1.50;;;19.40;85.90;;;;;;6184017;23;20092;-84
2023/06/04 09:34:50;;;;;;;6.93;1.42;;;19.50;87.90;;;;;;6158310;23;20005;-84
2023/06/04 09:37:17;;;;;;;4.47;1.50;;;19.60;88.80;;;;;;6157592;23;20087;-84
2023/06/04 09:39:44;;;;;;;5.32;1.63;;;19.70;89.30;;;;;;6158531;23;20029;-84
2023/06/04 09:42:10;;;;;;;6.07;1.60;;;19.80;89.40;;;;;;6158561;23;20013;-85
2023/06/04 09:44:48;;;;;;;5.60;1.40;;;19.90;83.40;;;;;;6157532;23;20023;-85
2023/06/04 09:47:15;;;;;;;4.68;1.33;;;19.90;80.20;;;;;;6185220;23;20016;-86
2023/06/04 09:49:50;;;;;;;4.57;1.60;;;20.00;84.30;;;;;;6158090;23;20060;-85
2023/06/04 09:52:17;;;;;;;5.97;1.40;;;20.10;86.00;;;;;;6157634;23;20438;-85
2023/06/04 09:54:43;;;;;;;4.28;1.30;;;20.20;85.20;;;;;;6185203;23;20013;-85
2023/06/04 09:57:18;;;;;;;4.85;1.30;;;20.30;87.20;;;;;;6158258;23;20024;-85
2023/06/04 09:59:49;;;;;;;4.50;1.33;;;20.40;85.50;;;;;;6159589;23;20040;-87
2023/06/04 10:02:20;;;;;;;5.22;1.40;;;20.40;83.00;;;;;;6158854;23;20021;-89
2023/06/04 10:04:59;;;;;;;3.97;1.33;;;20.40;86.20;;;;;;6160000;23;20021;-89
2023/06/04 10:07:26;;;;;;;4.95;1.38;;;20.50;87.10;;;;;;6158947;23;20087;-89
2023/06/04 10:09:52;;;;;;;4.13;1.20;;;20.60;80.80;;;;;;6158712;23;20104;-89
2023/06/04 10:12:26;;;;;;;4.70;1.48;;;20.60;81.30;;;;;;6160716;23;20022;-90
2023/06/04 10:15:01;;;;;;;4.95;1.20;;;20.60;78.40;;;;;;6152888;23;20027;-87
2023/06/04 10:17:28;;;;;;;3.80;1.45;;;20.60;82.70;;;;;;6159817;23;20442;-88
2023/06/04 10:19:56;;;;;;;3.72;1.30;;;20.70;84.70;;;;;;6158559;23;20096;-87
2023/06/04 10:22:22;;;;;;;5.05;1.20;;;20.80;84.50;;;;;;6186865;23;20024;-86
2023/06/04 10:24:47;;;;;;;4.35;1.30;;;20.80;83.30;;;;;;6159369;23;20013;-85
2023/06/04 10:27:13;;;;;;;5.15;1.27;;;20.90;83.80;;;;;;6159322;23;20017;-87
2023/06/04 10:29:39;;;;;;;3.78;1.38;;;21.00;84.90;;;;;;6159755;23;20017;-87
2023/06/04 10:32:05;;;;;;;5.18;1.40;;;21.10;85.20;;;;;;6186550;23;20021;-88
2023/06/04 10:34:32;;;;;;;3.72;1.38;;;21.10;80.80;;;;;;6159479;23;20442;-88
2023/06/04 10:36:58;;;;;;;5.30;1.40;;;21.20;76.70;;;;;;6163345;23;20028;-87
2023/06/04 10:39:35;;;;;;;4.43;1.20;;;21.10;74.20;;;;;;6160170;23;20013;-87
2023/06/04 10:42:05;;;;;;;5.00;1.50;;;21.10;75.40;;;;;;6159173;23;20020;-87
2023/06/04 10:44:32;;;;;;;5.53;1.40;;;21.10;75.10;;;;;;6160108;23;20107;-87
2023/06/04 10:46:58;;;;;;;8.63;1.65;;;21.10;74.50;;;;;;6186440;23;20017;-87
2023/06/04 10:49:28;;;;;;;5.47;1.60;;;21.10;76.70;;;;;;6185747;23;20017;-87
2023/06/04 10:51:56;;;;;;;7.97;1.42;;;21.30;81.80;;;;;;6159727;23;20032;-86
2023/06/04 10:54:25;;;;;;;10.23;2.03;;;21.40;80.70;;;;;;6160680;23;20009;-86
2023/06/04 10:56:53;;;;;;;5.47;1.40;;;21.50;83.60;;;;;;6159332;23;20028;-86
2023/06/04 10:59:19;;;;;;;4.72;1.33;;;21.60;81.10;;;;;;6186483;23;20017;-86
2023/06/04 11:01:45;;;;;;;5.00;1.50;;;21.70;81.20;;;;;;6185138;23;20342;-85
2023/06/04 11:04:24;;;;;;;6.57;1.45;;;21.80;84.10;;;;;;6159568;23;20315;-86
2023/06/04 11:07:10;;;;;;;5.88;1.60;;;21.90;85.40;;;;;;6159410;23;20350;-87
2023/06/04 11:09:37;;;;;;;4.03;1.35;;;22.00;83.80;;;;;;6157936;23;20023;-87
2023/06/04 11:12:05;;;;;;;4.53;1.20;;;22.10;85.00;;;;;;6160181;23;20392;-86
2023/06/04 11:14:30;;;;;;;4.75;1.38;;;22.10;80.80;;;;;;6185655;23;20052;-84
2023/06/04 11:16:56;;;;;;;4.72;1.65;;;22.20;82.80;;;;;;6158536;23;20017;-86
2023/06/04 11:19:22;;;;;;;4.93;1.73;;;22.30;81.80;;;;;;6159162;23;20143;-85
2023/06/04 11:21:48;;;;;;;9.55;1.80;;;22.40;78.90;;;;;;6184993;23;20013;-86
2023/06/04 11:24:14;;;;;;;6.85;1.65;;;22.40;77.00;;;;;;6159215;23;20013;-86
2023/06/04 11:26:40;;;;;;;7.07;1.40;;;22.50;76.90;;;;;;6159265;23;20051;-86
2023/06/04 11:29:11;;;;;;;7.15;1.48;;;22.50;78.70;;;;;;6185784;23;20009;-86
2023/06/04 11:31:47;;;;;;;7.47;1.40;;;22.60;77.00;;;;;;6158018;23;20335;-85
2023/06/04 11:34:27;;;;;;;5.93;1.40;;;22.70;75.90;;;;;;6159676;23;20426;-86
2023/06/04 11:36:53;;;;;;;4.88;1.27;;;22.60;78.10;;;;;;6185025;23;20331;-86
2023/06/04 11:39:20;;;;;;;5.70;1.70;;;22.70;74.30;;;;;;6185733;23;20385;-85
2023/06/04 11:41:46;;;;;;;4.70;1.50;;;22.70;78.40;;;;;;6185707;23;20032;-86
2023/06/04 11:44:12;;;;;;;4.30;1.10;;;22.70;80.10;;;;;;6158134;23;20020;-86
2023/06/04 11:46:48;;;;;;;6.18;1.23;;;22.80;76.10;;;;;;6158934;23;20025;-85
2023/06/04 11:49:16;;;;;;;4.25;1.25;;;22.80;77.00;;;;;;6159872;23;20044;-85
2023/06/04 11:51:52;;;;;;;5.35;1.40;;;22.90;80.30;;;;;;6184245;23;20447;-86
2023/06/04 11:54:20;;;;;;;5.82;1.40;;;22.90;78.00;;;;;;6159196;23;20013;-87
2023/06/04 11:56:49;;;;;;;5.40;1.40;;;23.00;76.30;;;;;;6158572;23;20024;-86
2023/06/04 11:59:16;;;;;;;5.97;1.15;;;23.10;77.70;;;;;;6158262;23;20017;-86
2023/06/04 12:01:42;;;;;;;4.97;1.27;;;23.20;77.60;;;;;;6185602;23;20009;-87
2023/06/04 12:04:16;;;;;;;3.72;1.17;;;23.30;78.90;;;;;;6159776;23;20017;-89
2023/06/04 12:06:57;;;;;;;5.38;1.23;;;23.30;67.10;;;;;;6157707;23;20013;-88
2023/06/04 12:09:24;;;;;;;3.90;1.38;;;23.30;75.60;;;;;;6159382;23;20091;-86
2023/06/04 12:11:50;;;;;;;4.40;1.20;;;23.30;77.10;;;;;;6158809;23;20013;-89
2023/06/04 12:14:20;;;;;;;7.38;1.30;;;23.40;79.10;;;;;;6157116;23;20311;-85
2023/06/04 12:17:00;;;;;;;5.82;1.40;;;23.40;80.00;;;;;;6157957;23;20021;-89
2023/06/04 12:19:27;;;;;;;4.35;1.42;;;23.50;63.00;;;;;;6183989;23;20446;-89
2023/06/04 12:22:06;;;;;;;4.43;1.20;;;23.40;74.70;;;;;;6184975;23;20017;-88
2023/06/04 12:24:36;;;;;;;4.03;1.45;;;23.40;77.90;;;;;;6158508;23;20139;-88
2023/06/04 12:27:08;;;;;;;4.43;1.20;;;23.50;78.50;;;;;;6156705;23;20067;-88
2023/06/04 12:29:34;;;;;;;4.82;1.23;;;23.60;80.60;;;;;;6185399;23;20019;-87
2023/06/04 12:32:03;;;;;;;5.15;1.50;;;23.70;75.90;;;;;;6184964;23;20017;-90
2023/06/04 12:34:29;;;;;;;5.22;1.20;;;23.70;64.10;;;;;;6158409;23;20068;-89
2023/06/04 12:36:55;;;;;;;4.50;1.23;;;23.70;73.40;;;;;;6185325;23;20334;-88
2023/06/04 12:39:20;;;;;;;3.92;1.38;;;23.70;76.80;;;;;;6158685;23;20020;-88
2023/06/04 12:41:46;;;;;;;7.15;1.42;;;23.80;78.30;;;;;;6158151;23;20021;-88
2023/06/04 12:44:12;;;;;;;5.47;1.50;;;23.80;72.30;;;;;;6158872;23;20017;-89
2023/06/04 12:46:37;;;;;;;3.28;1.27;;;23.90;72.70;;;;;;6158842;23;20025;-89